Saint Louis, Missouri
Traffic Map
Current Weather Conditions
Saint Louis, Missouri
Overcast
Overcast
-3°
Feels Like: -8°
Wind Chill: -8° Ceiling: 1200
Heat Index: -3° Visibility: 10mi
Dew Point: -7° Wind: 9mph
Humidity: 78% Direction: 140° (SE)
Pressure: 30in Gusts: 0mph
Raw Report DataKCPS 142053Z 14008KT 10SM OVC012 M03/M07 A3000 RMK AO2 SLP163 60000 T10331067 56035
Traffic Incident Summary
Active as of:
Severity:
Category:
InformationThere was an issue retrieving the traffic information for this location. Please try a different location or try again shortly.
Advertisements
Track Severe Weather on mobile